createdAt,value
2019-04-26T00:01:53.149Z,474
2019-04-26T00:03:55.382Z,474
2019-04-26T00:05:57.548Z,474
2019-04-26T00:07:59.767Z,474
2019-04-26T00:10:01.978Z,474
2019-04-26T00:12:04.231Z,474
2019-04-26T00:14:06.448Z,474
2019-04-26T00:16:08.793Z,474
2019-04-26T00:18:10.994Z,474
2019-04-26T00:20:13.215Z,474
2019-04-26T00:22:15.492Z,474
2019-04-26T00:24:17.649Z,474
2019-04-26T00:28:22.058Z,474
2019-04-26T00:30:24.280Z,474
2019-04-26T00:32:26.495Z,474
2019-04-26T00:34:28.709Z,474
2019-04-26T00:36:30.911Z,474
2019-04-26T00:38:33.084Z,474
2019-04-26T00:40:35.377Z,475
2019-04-26T00:42:37.594Z,474
2019-04-26T00:44:39.768Z,474
2019-04-26T00:46:41.992Z,474
2019-04-26T00:48:44.187Z,474
2019-04-26T00:50:46.386Z,474
2019-04-26T00:52:48.563Z,474
2019-04-26T00:54:50.751Z,474
2019-04-26T00:56:52.990Z,475
2019-04-26T00:58:55.236Z,474
2019-04-26T01:00:57.417Z,475
2019-04-26T01:02:59.599Z,474
2019-04-26T01:05:01.872Z,475
2019-04-26T01:07:03.987Z,475
2019-04-26T01:09:06.338Z,475
2019-04-26T01:11:08.394Z,475
2019-04-26T01:13:10.617Z,475
2019-04-26T01:15:12.822Z,475
2019-04-26T01:17:21.301Z,475
2019-04-26T01:19:17.338Z,474
2019-04-26T01:21:19.464Z,474
2019-04-26T01:23:21.799Z,474
2019-04-26T01:25:23.855Z,475
2019-04-26T01:27:26.093Z,474
2019-04-26T01:29:28.238Z,474
2019-04-26T01:31:30.461Z,474
2019-04-26T01:33:32.642Z,475
2019-04-26T01:35:34.853Z,474
2019-04-26T01:37:37.050Z,475
2019-04-26T01:39:39.227Z,475
2019-04-26T01:41:41.450Z,475
2019-04-26T01:43:43.665Z,475
2019-04-26T01:45:45.982Z,475
2019-04-26T01:47:48.078Z,475
2019-04-26T01:49:50.386Z,475
2019-04-26T01:51:52.474Z,475
2019-04-26T01:55:56.981Z,475
2019-04-26T01:57:59.328Z,475
2019-04-26T02:00:01.403Z,475
2019-04-26T02:02:03.536Z,475
2019-04-26T02:04:05.791Z,474
2019-04-26T02:06:08.106Z,474
2019-04-26T02:08:10.099Z,474
2019-04-26T02:10:12.409Z,474
2019-04-26T02:12:14.522Z,474
2019-04-26T02:14:16.717Z,474
2019-04-26T02:16:18.909Z,474
2019-04-26T02:18:21.116Z,474
2019-04-26T02:20:23.344Z,474
2019-04-26T02:22:25.645Z,474
2019-04-26T02:24:27.768Z,474
2019-04-26T02:26:30.161Z,474
2019-04-26T02:28:32.330Z,474
2019-04-26T02:30:34.421Z,474
2019-04-26T02:32:36.648Z,474
2019-04-26T02:34:42.794Z,474
2019-04-26T02:36:41.046Z,474
2019-04-26T02:38:43.233Z,474
2019-04-26T02:40:45.427Z,474
2019-04-26T02:42:47.637Z,474
2019-04-26T02:44:49.979Z,474
2019-04-26T02:46:52.067Z,474
2019-04-26T02:48:54.370Z,474
2019-04-26T02:50:56.531Z,474
2019-04-26T02:52:58.744Z,474
2019-04-26T02:55:01.094Z,474
2019-04-26T02:57:03.198Z,474
2019-04-26T02:59:05.505Z,474
2019-04-26T03:01:07.716Z,474
2019-04-26T03:03:09.853Z,474
2019-04-26T03:05:12.175Z,474
2019-04-26T03:07:14.291Z,474
2019-04-26T03:09:16.518Z,474
2019-04-26T03:11:18.873Z,474
2019-04-26T03:13:20.961Z,474
2019-04-26T03:15:23.188Z,474
2019-04-26T03:17:25.379Z,474
2019-04-26T03:19:27.769Z,474
2019-04-26T03:21:29.810Z,474
2019-04-26T03:23:32.013Z,474
2019-04-26T03:25:34.229Z,474
2019-04-26T03:27:36.493Z,474
2019-04-26T03:31:40.899Z,474
2019-04-26T03:33:43.177Z,474
2019-04-26T03:35:45.278Z,474
2019-04-26T03:37:47.466Z,474
2019-04-26T03:39:49.688Z,474
2019-04-26T03:41:51.885Z,474
2019-04-26T03:43:54.230Z,474
2019-04-26T03:45:56.392Z,474
2019-04-26T03:47:58.652Z,474
2019-04-26T03:50:00.759Z,474
2019-04-26T03:52:03.074Z,474
2019-04-26T03:54:05.285Z,474
2019-04-26T03:56:07.451Z,474
2019-04-26T03:58:09.788Z,474
2019-04-26T04:00:11.891Z,475
2019-04-26T04:02:14.119Z,474
2019-04-26T04:04:16.344Z,475
2019-04-26T04:06:18.614Z,474
2019-04-26T04:08:20.819Z,474
2019-04-26T04:10:23.076Z,475
2019-04-26T04:12:25.291Z,474
2019-04-26T04:14:27.548Z,475
2019-04-26T04:16:29.793Z,475
2019-04-26T04:18:32.283Z,474
2019-04-26T04:20:34.206Z,475
2019-04-26T04:22:36.452Z,474
2019-04-26T04:24:38.667Z,475
2019-04-26T04:26:40.938Z,475
2019-04-26T04:28:43.131Z,475
2019-04-26T04:30:45.366Z,475
2019-04-26T04:32:47.626Z,475
2019-04-26T04:34:49.820Z,475
2019-04-26T04:36:52.058Z,475
2019-04-26T04:38:54.293Z,474
2019-04-26T04:40:56.566Z,475
2019-04-26T04:42:58.819Z,474
2019-04-26T04:45:01.094Z,474
2019-04-26T04:47:03.364Z,475
2019-04-26T04:51:07.856Z,475
2019-04-26T04:53:10.099Z,474
2019-04-26T04:55:12.413Z,474
2019-04-26T04:57:14.597Z,475
2019-04-26T04:59:16.899Z,475
2019-04-26T05:01:19.119Z,474
2019-04-26T05:03:21.373Z,474
2019-04-26T05:05:23.699Z,474
2019-04-26T05:07:25.817Z,474
2019-04-26T05:09:28.065Z,475
2019-04-26T05:11:30.752Z,474
2019-04-26T05:13:32.628Z,474
2019-04-26T05:15:34.954Z,474
2019-04-26T05:17:37.231Z,474
2019-04-26T05:19:39.445Z,474
2019-04-26T05:21:41.679Z,474
2019-04-26T05:23:43.955Z,474
2019-04-26T05:25:46.370Z,474
2019-04-26T05:27:48.551Z,474
2019-04-26T05:29:50.824Z,474
2019-04-26T05:31:53.069Z,474
2019-04-26T05:33:55.273Z,474
2019-04-26T05:35:59.298Z,474
2019-04-26T05:37:59.800Z,474
2019-04-26T05:40:02.086Z,474
2019-04-26T05:42:04.403Z,474
2019-04-26T05:44:06.752Z,474
2019-04-26T05:46:08.871Z,474
2019-04-26T05:48:11.169Z,474
2019-04-26T05:50:13.411Z,474
2019-04-26T05:52:15.765Z,474
2019-04-26T05:54:18.037Z,474
2019-04-26T05:58:22.561Z,474
2019-04-26T06:00:24.813Z,474
2019-04-26T06:02:31.018Z,474
2019-04-26T06:04:29.326Z,474
2019-04-26T06:06:31.684Z,474
2019-04-26T06:08:33.873Z,474
2019-04-26T06:10:36.157Z,474
2019-04-26T06:12:38.495Z,474
2019-04-26T06:14:40.711Z,474
2019-04-26T06:16:43.056Z,474
2019-04-26T06:18:45.291Z,474
2019-04-26T06:20:47.554Z,474
2019-04-26T06:22:49.831Z,474
2019-04-26T06:24:52.103Z,474
2019-04-26T06:28:56.730Z,474
2019-04-26T06:30:58.941Z,474
2019-04-26T06:33:01.316Z,474
2019-04-26T06:35:03.481Z,474
2019-04-26T06:37:05.749Z,474
2019-04-26T06:39:08.019Z,474
2019-04-26T06:41:10.371Z,474
2019-04-26T06:43:15.030Z,474
2019-04-26T06:45:14.894Z,474
2019-04-26T06:47:17.149Z,474
2019-04-26T06:49:19.447Z,474
2019-04-26T06:51:22.209Z,474
2019-04-26T06:53:23.981Z,474
2019-04-26T06:57:28.703Z,474
2019-04-26T06:59:30.825Z,474
2019-04-26T07:01:33.130Z,474
2019-04-26T07:03:35.489Z,474
2019-04-26T07:05:37.629Z,474
2019-04-26T07:07:39.909Z,474
2019-04-26T07:09:42.387Z,474
2019-04-26T07:11:44.455Z,474
2019-04-26T07:13:46.760Z,474
2019-04-26T07:15:49.113Z,474
2019-04-26T07:17:51.315Z,474
2019-04-26T07:19:53.657Z,474
2019-04-26T07:21:55.799Z,474
2019-04-26T07:26:00.461Z,474
2019-04-26T07:28:02.566Z,474
2019-04-26T07:30:04.981Z,474
2019-04-26T07:32:07.881Z,474
2019-04-26T07:34:09.414Z,474
2019-04-26T07:36:11.646Z,474
2019-04-26T07:38:13.944Z,474
2019-04-26T07:40:19.836Z,474
2019-04-26T07:42:18.574Z,474
2019-04-26T07:44:20.754Z,474
2019-04-26T07:46:23.004Z,474
2019-04-26T07:48:25.228Z,474
2019-04-26T07:50:27.483Z,474
2019-04-26T07:52:29.761Z,474
2019-04-26T07:54:32.032Z,474
2019-04-26T07:56:35.096Z,474
2019-04-26T07:58:36.888Z,474
2019-04-26T08:00:38.898Z,474
2019-04-26T08:02:41.061Z,474
2019-04-26T08:04:43.327Z,474
2019-04-26T08:06:46.162Z,474
2019-04-26T08:08:47.930Z,474
2019-04-26T08:10:50.156Z,474
2019-04-26T08:14:55.249Z,474
2019-04-26T08:16:56.935Z,474
2019-04-26T08:19:04.295Z,474
2019-04-26T08:21:01.583Z,474
2019-04-26T08:23:03.759Z,474
2019-04-26T08:25:06.027Z,474
2019-04-26T08:27:08.254Z,474
2019-04-26T08:29:10.595Z,474
2019-04-26T08:31:12.815Z,474
2019-04-26T08:33:15.099Z,474
2019-04-26T08:35:17.389Z,474
2019-04-26T08:37:19.628Z,474
2019-04-26T08:39:21.949Z,474
2019-04-26T08:41:24.185Z,474
2019-04-26T08:43:26.418Z,473
2019-04-26T08:45:28.717Z,473
2019-04-26T08:47:30.964Z,473
2019-04-26T08:51:35.495Z,473
2019-04-26T08:53:37.747Z,473
2019-04-26T08:57:42.228Z,473
2019-04-26T08:59:44.436Z,473
2019-04-26T09:01:46.719Z,473
2019-04-26T09:03:49.034Z,473
2019-04-26T09:05:51.515Z,473
2019-04-26T09:07:53.601Z,473
2019-04-26T09:09:56.898Z,472
2019-04-26T09:11:58.109Z,472
2019-04-26T09:14:00.246Z,472
2019-04-26T09:16:02.536Z,472
2019-04-26T09:18:04.859Z,472
2019-04-26T09:20:07.580Z,472
2019-04-26T09:22:09.673Z,471
2019-04-26T09:24:11.639Z,471
2019-04-26T09:26:15.358Z,471
2019-04-26T09:28:16.052Z,471
2019-04-26T09:30:18.304Z,470
2019-04-26T09:32:20.565Z,470
2019-04-26T09:34:23.198Z,470
2019-04-26T09:36:25.126Z,469
2019-04-26T09:38:27.765Z,469
2019-04-26T09:40:29.651Z,469
2019-04-26T09:42:31.893Z,468
2019-04-26T09:44:35.174Z,468
2019-04-26T09:46:36.410Z,468
2019-04-26T09:48:38.665Z,467
2019-04-26T09:50:40.915Z,467
2019-04-26T09:54:45.424Z,466
2019-04-26T09:56:47.631Z,466
2019-04-26T09:58:49.889Z,466
2019-04-26T10:00:52.115Z,465
2019-04-26T10:02:54.513Z,465
2019-04-26T10:04:56.658Z,465
2019-04-26T10:06:58.923Z,465
2019-04-26T10:09:01.135Z,464
2019-04-26T10:11:04.453Z,464
2019-04-26T10:13:05.643Z,464
2019-04-26T10:15:07.901Z,464
2019-04-26T10:17:10.200Z,464
2019-04-26T10:19:12.522Z,463
2019-04-26T10:21:14.676Z,463
2019-04-26T10:23:16.918Z,463
2019-04-26T10:25:19.191Z,463
2019-04-26T10:27:21.515Z,463
2019-04-26T10:29:23.727Z,463
2019-04-26T10:31:25.946Z,463
2019-04-26T10:33:28.234Z,462
2019-04-26T10:35:30.447Z,462
2019-04-26T10:37:32.755Z,462
2019-04-26T10:39:34.989Z,462
2019-04-26T10:41:37.219Z,462
2019-04-26T10:43:39.758Z,462
2019-04-26T10:45:41.705Z,462
2019-04-26T10:47:44.071Z,462
2019-04-26T10:49:46.588Z,462
2019-04-26T10:51:48.498Z,461
2019-04-26T10:53:51.055Z,461
2019-04-26T10:55:53.897Z,461
2019-04-26T10:57:55.223Z,461
2019-04-26T10:59:57.564Z,461
2019-04-26T11:01:59.769Z,461
2019-04-26T11:04:01.995Z,461
2019-04-26T11:06:04.232Z,461
2019-04-26T11:08:06.617Z,461
2019-04-26T11:10:08.797Z,461
2019-04-26T11:12:11.014Z,461
2019-04-26T11:14:13.247Z,461
2019-04-26T11:16:15.623Z,460
2019-04-26T11:18:17.690Z,460
2019-04-26T11:20:20.519Z,460
2019-04-26T11:22:22.458Z,460
2019-04-26T11:24:24.458Z,460
2019-04-26T11:26:33.059Z,460
2019-04-26T11:28:29.048Z,460
2019-04-26T11:30:31.303Z,460
2019-04-26T11:32:33.612Z,460
2019-04-26T11:34:35.827Z,460
2019-04-26T11:36:37.979Z,460
2019-04-26T11:38:40.238Z,460
2019-04-26T11:40:43.361Z,460
2019-04-26T11:42:44.767Z,460
2019-04-26T11:44:47.094Z,460
2019-04-26T11:46:49.295Z,460
2019-04-26T11:48:51.576Z,460
2019-04-26T11:52:56.104Z,460
2019-04-26T11:54:58.296Z,460
2019-04-26T11:57:00.488Z,460
2019-04-26T11:59:02.832Z,460
2019-04-26T12:01:04.967Z,460
2019-04-26T12:03:07.228Z,460
2019-04-26T12:05:09.605Z,460
2019-04-26T12:07:11.892Z,460
2019-04-26T12:09:14.082Z,460
2019-04-26T12:11:16.278Z,460
2019-04-26T12:13:18.672Z,460
2019-04-26T12:15:20.883Z,460
2019-04-26T12:17:23.064Z,460
2019-04-26T12:19:25.331Z,460
2019-04-26T12:21:27.620Z,460
2019-04-26T12:23:30.029Z,460
2019-04-26T12:25:32.337Z,460
2019-04-26T12:27:34.341Z,460
2019-04-26T12:29:36.718Z,460
2019-04-26T12:31:41.044Z,460
2019-04-26T12:33:42.697Z,460
2019-04-26T12:35:43.468Z,460
2019-04-26T12:37:45.654Z,459
2019-04-26T12:39:47.943Z,459
2019-04-26T12:41:50.236Z,459
2019-04-26T12:43:52.463Z,459
2019-04-26T12:45:54.739Z,459
2019-04-26T12:47:56.991Z,459
2019-04-26T12:49:59.275Z,459
2019-04-26T12:52:01.593Z,459
2019-04-26T12:54:06.053Z,459
2019-04-26T12:56:11.831Z,459
2019-04-26T12:58:08.379Z,459
2019-04-26T13:00:11.209Z,459
2019-04-26T13:02:13.252Z,459
2019-04-26T13:04:15.316Z,459
2019-04-26T13:06:17.549Z,459
2019-04-26T13:08:19.585Z,459
2019-04-26T13:10:21.883Z,459
2019-04-26T13:12:24.116Z,459
2019-04-26T13:14:26.618Z,459
2019-04-26T13:16:28.740Z,459
2019-04-26T13:18:30.953Z,459
2019-04-26T13:20:33.151Z,459
2019-04-26T13:22:35.628Z,459
2019-04-26T13:24:37.675Z,459
2019-04-26T13:28:42.290Z,459
2019-04-26T13:30:44.601Z,459
2019-04-26T13:32:46.825Z,459
2019-04-26T13:34:48.993Z,459
2019-04-26T13:36:51.238Z,459
2019-04-26T13:38:53.478Z,459
2019-04-26T13:40:55.721Z,459
2019-04-26T13:42:58.080Z,459
2019-04-26T13:47:02.936Z,459
2019-04-26T13:49:04.883Z,459
2019-04-26T13:51:07.042Z,459
2019-04-26T13:53:09.493Z,459
2019-04-26T13:55:11.438Z,459
2019-04-26T13:57:13.677Z,459
2019-04-26T13:59:15.924Z,459
2019-04-26T14:01:18.325Z,459
2019-04-26T14:03:22.473Z,459
2019-04-26T14:05:22.633Z,459
2019-04-26T14:07:24.994Z,459
2019-04-26T14:09:27.097Z,459
2019-04-26T14:11:29.335Z,459
2019-04-26T14:13:31.567Z,459
2019-04-26T14:15:33.858Z,459
2019-04-26T14:17:36.091Z,459
2019-04-26T14:19:38.429Z,459
2019-04-26T14:21:40.565Z,460
2019-04-26T14:23:43.059Z,460
2019-04-26T14:25:46.122Z,460
2019-04-26T14:27:47.275Z,460
2019-04-26T14:29:49.540Z,460
2019-04-26T14:31:51.761Z,460
2019-04-26T14:33:54.039Z,460
2019-04-26T14:35:56.435Z,460
2019-04-26T14:37:58.478Z,460
2019-04-26T14:40:00.814Z,460
2019-04-26T14:42:02.962Z,460
2019-04-26T14:44:05.387Z,460
2019-04-26T14:46:07.476Z,460
2019-04-26T14:48:09.719Z,460
2019-04-26T14:50:11.987Z,460
2019-04-26T14:52:14.100Z,460
2019-04-26T14:54:16.534Z,460
2019-04-26T14:56:19.044Z,460
2019-04-26T14:58:20.866Z,460
2019-04-26T15:00:23.057Z,460
2019-04-26T15:02:25.326Z,460
2019-04-26T15:04:30.094Z,460
2019-04-26T15:06:29.918Z,460
2019-04-26T15:08:32.001Z,460
2019-04-26T15:10:34.261Z,460
2019-04-26T15:12:36.599Z,460
2019-04-26T15:14:38.691Z,460
2019-04-26T15:16:40.911Z,460
2019-04-26T15:18:43.149Z,460
2019-04-26T15:20:49.095Z,460
2019-04-26T15:22:47.623Z,460
2019-04-26T15:24:49.798Z,460
2019-04-26T15:26:52.090Z,460
2019-04-26T15:28:54.228Z,460
2019-04-26T15:30:56.485Z,460
2019-04-26T15:32:58.696Z,460
2019-04-26T15:35:00.886Z,460
2019-04-26T15:37:03.192Z,460
2019-04-26T15:39:05.362Z,460
2019-04-26T15:41:07.505Z,460
2019-04-26T15:45:11.925Z,460
2019-04-26T15:47:14.124Z,460
2019-04-26T15:49:16.323Z,460
2019-04-26T15:51:22.243Z,460
2019-04-26T15:53:20.776Z,460
2019-04-26T15:55:23.002Z,460
2019-04-26T15:57:25.314Z,460
2019-04-26T15:59:27.410Z,460
2019-04-26T16:01:29.639Z,460
2019-04-26T16:03:31.970Z,460
2019-04-26T16:05:34.119Z,460
2019-04-26T16:07:36.459Z,460
2019-04-26T16:09:38.630Z,460
2019-04-26T16:11:40.779Z,460
2019-04-26T16:13:43.072Z,460
2019-04-26T16:15:45.437Z,460
2019-04-26T16:17:47.503Z,460
2019-04-26T16:19:49.710Z,460
2019-04-26T16:21:51.930Z,460
2019-04-26T16:23:54.135Z,460
2019-04-26T16:25:58.774Z,460
2019-04-26T16:27:58.558Z,460
2019-04-26T16:30:00.871Z,460
2019-04-26T16:32:02.985Z,460
2019-04-26T16:34:05.276Z,460
2019-04-26T16:36:07.582Z,460
2019-04-26T16:38:09.669Z,460
2019-04-26T16:40:12.033Z,460
2019-04-26T16:42:14.113Z,460
2019-04-26T16:44:16.326Z,460
2019-04-26T16:46:18.561Z,460
2019-04-26T16:48:20.846Z,460
2019-04-26T16:50:23.150Z,460
2019-04-26T16:52:25.227Z,460
2019-04-26T16:54:27.539Z,460
2019-04-26T16:56:29.753Z,460
2019-04-26T16:58:31.947Z,460
2019-04-26T17:00:34.126Z,460
2019-04-26T17:02:36.542Z,460
2019-04-26T17:04:38.572Z,460
2019-04-26T17:06:40.845Z,460
2019-04-26T17:08:43.010Z,460
2019-04-26T17:12:47.388Z,460
2019-04-26T17:14:49.653Z,460
2019-04-26T17:16:51.854Z,460
2019-04-26T17:18:54.142Z,460
2019-04-26T17:20:56.299Z,460
2019-04-26T17:22:58.604Z,460
2019-04-26T17:25:01.587Z,460
2019-04-26T17:27:03.062Z,460
2019-04-26T17:29:05.171Z,460
2019-04-26T17:31:07.396Z,460
2019-04-26T17:33:09.585Z,460
2019-04-26T17:35:11.803Z,460
2019-04-26T17:37:14.042Z,460
2019-04-26T17:39:16.310Z,460
2019-04-26T17:41:18.548Z,460
2019-04-26T17:43:20.694Z,461
2019-04-26T17:45:23.039Z,460
2019-04-26T17:47:25.362Z,460
2019-04-26T17:49:27.612Z,460
2019-04-26T17:51:29.680Z,461
2019-04-26T17:53:31.868Z,461
2019-04-26T17:55:34.129Z,461
2019-04-26T17:57:36.365Z,461
2019-04-26T17:59:38.542Z,461
2019-04-26T18:01:40.818Z,461
2019-04-26T18:03:43.053Z,461
2019-04-26T18:05:45.244Z,461
2019-04-26T18:07:47.476Z,461
2019-04-26T18:09:49.724Z,461
2019-04-26T18:11:51.973Z,461
2019-04-26T18:13:54.202Z,461
2019-04-26T18:17:58.645Z,461
2019-04-26T18:20:00.879Z,461
2019-04-26T18:22:03.208Z,461
2019-04-26T18:24:05.461Z,461
2019-04-26T18:26:08.761Z,461
2019-04-26T18:28:09.857Z,461
2019-04-26T18:30:12.065Z,461
2019-04-26T18:32:14.311Z,461
2019-04-26T18:34:16.552Z,461
2019-04-26T18:36:18.786Z,461
2019-04-26T18:38:21.030Z,461
2019-04-26T18:40:23.301Z,461
2019-04-26T18:42:25.512Z,461
2019-04-26T18:44:27.850Z,461
2019-04-26T18:46:30.033Z,461
2019-04-26T18:48:33.101Z,461
2019-04-26T18:50:35.541Z,461
2019-04-26T18:52:36.809Z,461
2019-04-26T18:54:38.952Z,461
2019-04-26T18:56:41.227Z,461
2019-04-26T18:58:43.454Z,461
2019-04-26T19:00:45.713Z,461
2019-04-26T19:02:47.972Z,461
2019-04-26T19:06:52.494Z,461
2019-04-26T19:08:54.806Z,461
2019-04-26T19:10:57.017Z,461
2019-04-26T19:12:59.246Z,461
2019-04-26T19:15:01.515Z,461
2019-04-26T19:17:04.525Z,461
2019-04-26T19:19:06.000Z,461
2019-04-26T19:21:08.229Z,461
2019-04-26T19:23:10.630Z,461
2019-04-26T19:25:12.839Z,461
2019-04-26T19:27:15.064Z,461
2019-04-26T19:29:17.243Z,461
2019-04-26T19:31:19.528Z,461
2019-04-26T19:33:21.795Z,461
2019-04-26T19:35:24.117Z,461
2019-04-26T19:37:26.363Z,461
2019-04-26T19:39:28.580Z,461
2019-04-26T19:41:30.802Z,461
2019-04-26T19:43:36.534Z,461
2019-04-26T19:45:35.376Z,461
2019-04-26T19:47:37.563Z,461
2019-04-26T19:49:39.863Z,461
2019-04-26T19:51:42.111Z,461
2019-04-26T19:53:47.416Z,461
2019-04-26T19:55:46.685Z,461
2019-04-26T19:57:48.901Z,461
2019-04-26T19:59:51.165Z,461
2019-04-26T20:01:53.558Z,461
2019-04-26T20:03:55.632Z,461
2019-04-26T20:05:57.995Z,461
2019-04-26T20:08:00.260Z,461
2019-04-26T20:10:02.441Z,461
2019-04-26T20:12:04.702Z,461
2019-04-26T20:14:07.207Z,461
2019-04-26T20:16:09.248Z,461
2019-04-26T20:18:11.619Z,461
2019-04-26T20:20:13.933Z,461
2019-04-26T20:22:16.048Z,461
2019-04-26T20:24:18.375Z,461
2019-04-26T20:28:23.020Z,461
2019-04-26T20:30:25.184Z,461
2019-04-26T20:32:27.467Z,461
2019-04-26T20:34:29.711Z,461
2019-04-26T20:36:31.954Z,461
2019-04-26T20:38:34.252Z,461
2019-04-26T20:40:36.575Z,461
2019-04-26T20:42:38.949Z,461
2019-04-26T20:44:41.113Z,461
2019-04-26T20:46:47.255Z,461
2019-04-26T20:48:45.565Z,461
2019-04-26T20:50:47.830Z,461
2019-04-26T20:52:50.181Z,461
2019-04-26T20:54:52.459Z,461
2019-04-26T20:56:54.650Z,461
2019-04-26T20:58:56.917Z,461
2019-04-26T21:03:01.461Z,461
2019-04-26T21:05:03.817Z,461
2019-04-26T21:07:05.982Z,461
2019-04-26T21:09:08.436Z,461
2019-04-26T21:11:10.536Z,461
2019-04-26T21:15:15.209Z,461
2019-04-26T21:17:17.342Z,461
2019-04-26T21:19:19.601Z,462
2019-04-26T21:21:22.121Z,462
2019-04-26T21:23:24.163Z,462
2019-04-26T21:25:26.403Z,462
2019-04-26T21:27:28.685Z,462
2019-04-26T21:29:30.991Z,462
2019-04-26T21:31:33.215Z,462
2019-04-26T21:33:35.576Z,462
2019-04-26T21:35:37.803Z,462
2019-04-26T21:37:40.103Z,462
2019-04-26T21:39:42.238Z,462
2019-04-26T21:41:44.634Z,462
2019-04-26T21:43:46.776Z,462
2019-04-26T21:45:49.014Z,462
2019-04-26T21:47:51.339Z,462
2019-04-26T21:49:53.633Z,462
2019-04-26T21:53:58.105Z,462
2019-04-26T21:58:04.948Z,462
2019-04-26T22:00:04.849Z,462
2019-04-26T22:02:07.267Z,462
2019-04-26T22:04:09.343Z,462
2019-04-26T22:06:11.568Z,462
2019-04-26T22:08:13.865Z,462
2019-04-26T22:10:16.092Z,462
2019-04-26T22:12:18.686Z,462
2019-04-26T22:14:20.620Z,462
2019-04-26T22:18:25.135Z,462
2019-04-26T22:20:27.407Z,462
2019-04-26T22:22:29.661Z,462
2019-04-26T22:24:32.042Z,462
2019-04-26T22:26:34.201Z,462
2019-04-26T22:28:36.629Z,462
2019-04-26T22:30:38.751Z,462
2019-04-26T22:32:40.977Z,462
2019-04-26T22:34:44.751Z,462
2019-04-26T22:36:47.825Z,462
2019-04-26T22:38:47.770Z,462
2019-04-26T22:40:50.193Z,462
2019-04-26T22:42:52.430Z,462
2019-04-26T22:44:54.654Z,462
2019-04-26T22:46:56.849Z,462
2019-04-26T22:48:59.185Z,462
2019-04-26T22:51:01.422Z,462
2019-04-26T22:53:03.705Z,462
2019-04-26T22:55:05.874Z,462
2019-04-26T22:57:08.881Z,462
2019-04-26T22:59:10.408Z,462
2019-04-26T23:01:12.731Z,462
2019-04-26T23:03:14.943Z,462
2019-04-26T23:05:17.215Z,462
2019-04-26T23:07:19.525Z,462
2019-04-26T23:09:21.848Z,462
2019-04-26T23:11:24.048Z,462
2019-04-26T23:13:26.337Z,462
2019-04-26T23:15:28.592Z,462
2019-04-26T23:17:30.832Z,462
2019-04-26T23:19:33.122Z,462
2019-04-26T23:21:35.406Z,462
2019-04-26T23:23:37.619Z,462
2019-04-26T23:25:39.863Z,462
2019-04-26T23:27:42.117Z,462
2019-04-26T23:29:44.410Z,462
2019-04-26T23:31:46.798Z,462
2019-04-26T23:33:48.909Z,462
2019-04-26T23:35:51.297Z,462
2019-04-26T23:37:53.621Z,462
2019-04-26T23:39:55.751Z,462
2019-04-26T23:41:58.057Z,462
2019-04-26T23:44:00.408Z,462
2019-04-26T23:46:02.680Z,462
2019-04-26T23:48:04.882Z,462
2019-04-26T23:50:07.417Z,462
2019-04-26T23:52:09.446Z,462
2019-04-26T23:54:11.687Z,462
2019-04-26T23:56:14.000Z,462
